createdAt,value
2023-04-21T00:02:50.047Z,19.20
2023-04-21T00:05:54.826Z,19.83
2023-04-21T00:08:57.540Z,18.30
2023-04-21T00:12:00.347Z,19.00
2023-04-21T00:15:03.695Z,19.13
2023-04-21T00:18:09.886Z,18.60
2023-04-21T00:21:14.324Z,18.63
2023-04-21T00:24:17.079Z,18.00
2023-04-21T00:27:19.808Z,18.47
2023-04-21T00:30:22.838Z,17.93
2023-04-21T00:33:25.620Z,18.00
2023-04-21T00:36:29.729Z,18.90
2023-04-21T00:39:32.431Z,21.20
2023-04-21T00:42:35.203Z,20.00
2023-04-21T00:45:37.998Z,18.73
2023-04-21T00:48:40.723Z,18.73
2023-04-21T00:51:44.848Z,19.47
2023-04-21T00:54:47.729Z,17.67
2023-04-21T00:57:52.111Z,18.67
2023-04-21T01:00:55.142Z,19.70
2023-04-21T01:03:59.473Z,19.30
2023-04-21T01:07:05.609Z,19.57
2023-04-21T01:10:09.602Z,20.13
2023-04-21T01:13:14.464Z,19.50
2023-04-21T01:16:18.203Z,18.67
2023-04-21T01:19:21.756Z,19.27
2023-04-21T01:22:26.751Z,19.60
2023-04-21T01:25:29.653Z,20.43
2023-04-21T01:28:32.399Z,18.73
2023-04-21T01:31:35.223Z,16.97
2023-04-21T01:34:38.230Z,17.53
2023-04-21T01:37:42.895Z,17.63
2023-04-21T01:40:47.167Z,18.03
2023-04-21T01:43:49.874Z,18.50
2023-04-21T01:46:52.922Z,16.73
2023-04-21T01:49:55.667Z,18.20
2023-04-21T01:53:00.258Z,17.77
2023-04-21T01:56:03.435Z,17.70
2023-04-21T01:59:06.167Z,17.43
2023-04-21T02:02:10.359Z,16.17
2023-04-21T02:05:13.257Z,16.07
2023-04-21T02:08:18.063Z,16.90
2023-04-21T02:11:20.785Z,17.00
2023-04-21T02:14:23.546Z,16.87
2023-04-21T02:17:26.331Z,17.07
2023-04-21T02:20:29.268Z,16.90
2023-04-21T02:23:33.615Z,17.63
2023-04-21T02:26:36.408Z,14.83
2023-04-21T02:29:39.161Z,15.00
2023-04-21T02:32:42.383Z,16.30
2023-04-21T02:35:45.197Z,14.97
2023-04-21T02:38:49.270Z,15.17
2023-04-21T02:41:52.387Z,14.87
2023-04-21T02:44:55.096Z,15.33
2023-04-21T02:47:58.816Z,15.47
2023-04-21T02:51:02.233Z,15.13
2023-04-21T02:54:06.460Z,15.17
2023-04-21T02:57:09.186Z,15.07
2023-04-21T03:00:13.966Z,15.43
2023-04-21T03:03:16.991Z,15.90
2023-04-21T03:06:19.754Z,15.83
2023-04-21T03:09:24.134Z,14.80
2023-04-21T03:12:26.858Z,13.77
2023-04-21T03:15:29.718Z,15.20
2023-04-21T03:18:35.952Z,15.17
2023-04-21T03:21:39.642Z,15.43
2023-04-21T03:24:43.747Z,15.67
2023-04-21T03:27:46.460Z,14.57
2023-04-21T03:30:49.172Z,14.20
2023-04-21T03:33:54.853Z,14.53
2023-04-21T03:36:57.534Z,15.17
2023-04-21T03:40:01.633Z,13.73
2023-04-21T03:43:04.341Z,14.13
2023-04-21T03:46:07.264Z,12.83
2023-04-21T03:49:10.330Z,14.30
2023-04-21T03:52:13.110Z,14.10
2023-04-21T03:55:17.257Z,13.00
2023-04-21T03:58:23.030Z,11.60
2023-04-21T04:01:25.754Z,12.70
2023-04-21T04:04:28.939Z,12.63
2023-04-21T04:07:32.604Z,12.90
2023-04-21T04:10:37.371Z,12.60
2023-04-21T04:13:40.091Z,12.77
2023-04-21T04:16:42.955Z,12.13
2023-04-21T04:19:45.680Z,14.57
2023-04-21T04:22:48.379Z,18.70
2023-04-21T04:25:52.460Z,16.87
2023-04-21T04:28:56.472Z,14.07
2023-04-21T04:32:01.598Z,14.37
2023-04-21T04:35:04.652Z,12.77
2023-04-21T04:38:08.017Z,12.47
2023-04-21T04:41:12.819Z,12.40
2023-04-21T04:44:17.981Z,11.67
2023-04-21T04:47:21.106Z,13.90
2023-04-21T04:50:27.090Z,13.07
2023-04-21T04:53:29.866Z,13.93
2023-04-21T04:56:33.922Z,15.87
2023-04-21T04:59:36.869Z,13.80
2023-04-21T05:02:39.831Z,14.83
2023-04-21T05:05:42.860Z,13.63
2023-04-21T05:08:45.846Z,13.00
2023-04-21T05:11:49.921Z,12.27
2023-04-21T05:14:52.564Z,12.73
2023-04-21T05:17:55.345Z,12.53
2023-04-21T05:20:58.145Z,12.83
2023-04-21T05:24:01.994Z,12.93
2023-04-21T05:27:06.040Z,13.10
2023-04-21T05:30:09.777Z,12.30
2023-04-21T05:33:12.575Z,12.47
2023-04-21T05:36:15.408Z,12.53
2023-04-21T05:39:18.726Z,13.47
2023-04-21T05:42:23.332Z,16.10
2023-04-21T05:45:26.026Z,15.53
2023-04-21T05:48:29.338Z,14.63
2023-04-21T05:51:32.121Z,12.73
2023-04-21T05:54:34.930Z,12.63
2023-04-21T05:57:39.007Z,11.47
2023-04-21T06:00:41.730Z,11.53
2023-04-21T06:03:44.705Z,12.00
2023-04-21T06:06:47.420Z,12.40
2023-04-21T06:09:51.833Z,12.17
2023-04-21T06:12:55.956Z,11.53
2023-04-21T06:15:58.772Z,11.33
2023-04-21T06:19:01.830Z,12.23
2023-04-21T06:22:04.607Z,11.13
2023-04-21T06:25:08.020Z,11.03
2023-04-21T06:28:12.112Z,11.87
2023-04-21T06:31:15.545Z,11.67
2023-04-21T06:34:21.564Z,12.67
2023-04-21T06:37:24.555Z,12.90
2023-04-21T06:40:27.385Z,12.07
2023-04-21T06:43:31.640Z,11.83
2023-04-21T06:46:34.618Z,11.77
2023-04-21T06:49:37.675Z,12.17
2023-04-21T06:52:40.675Z,12.83
2023-04-21T06:55:43.408Z,13.20
2023-04-21T06:58:47.845Z,13.97
2023-04-21T07:01:54.205Z,14.07
2023-04-21T07:04:57.310Z,14.13
2023-04-21T07:08:00.452Z,13.43
2023-04-21T07:11:03.472Z,12.90
2023-04-21T07:14:07.800Z,13.47
2023-04-21T07:17:10.660Z,12.67
2023-04-21T07:20:14.017Z,13.90
2023-04-21T07:23:16.734Z,14.37
2023-04-21T07:26:19.446Z,14.17
2023-04-21T07:29:23.469Z,13.67
2023-04-21T07:32:26.179Z,14.40
2023-04-21T07:35:28.986Z,13.07
2023-04-21T07:38:31.768Z,15.10
2023-04-21T07:41:35.345Z,14.67
2023-04-21T07:44:39.382Z,14.07
2023-04-21T07:47:51.451Z,13.70
2023-04-21T07:50:54.289Z,14.83
2023-04-21T07:53:57.144Z,15.53
2023-04-21T07:56:59.837Z,14.67
2023-04-21T08:00:04.287Z,14.60
2023-04-21T08:03:07.137Z,14.50
2023-04-21T08:06:10.811Z,14.60
2023-04-21T08:09:15.988Z,15.33
2023-04-21T08:12:19.025Z,14.93
2023-04-21T08:15:23.381Z,15.20
2023-04-21T08:18:26.139Z,14.23
2023-04-21T08:21:30.166Z,13.90
2023-04-21T08:24:34.170Z,13.37
2023-04-21T08:27:38.955Z,14.40
2023-04-21T08:30:43.598Z,13.97
2023-04-21T08:33:57.985Z,13.27
2023-04-21T08:37:03.603Z,14.90
2023-04-21T08:40:07.619Z,14.93
2023-04-21T08:43:10.799Z,15.17
2023-04-21T08:46:16.492Z,13.83
2023-04-21T08:49:21.480Z,14.50
2023-04-21T08:52:24.460Z,14.33
2023-04-21T08:55:30.577Z,13.57
2023-04-21T08:58:33.390Z,14.37
2023-04-21T09:02:07.997Z,13.83
2023-04-21T09:05:11.116Z,12.83
2023-04-21T09:08:18.526Z,13.07
2023-04-21T09:11:21.195Z,14.10
2023-04-21T09:14:30.042Z,14.20
2023-04-21T09:17:36.286Z,13.73
2023-04-21T09:20:42.083Z,13.23
2023-04-21T09:23:46.591Z,15.03
2023-04-21T09:26:51.566Z,13.37
2023-04-21T09:29:54.372Z,14.17
2023-04-21T09:32:59.544Z,14.63
2023-04-21T09:36:04.004Z,13.77
2023-04-21T09:42:13.541Z,15.43
2023-04-21T09:45:36.528Z,15.47
2023-04-21T09:48:44.397Z,16.40
2023-04-21T09:55:01.156Z,13.90
2023-04-21T09:58:10.202Z,16.10
2023-04-21T10:01:14.777Z,16.10
2023-04-21T10:04:20.401Z,16.17
2023-04-21T10:07:23.810Z,15.40
2023-04-21T10:10:29.087Z,15.70
2023-04-21T10:13:32.635Z,16.67
2023-04-21T10:16:37.312Z,16.40
2023-04-21T10:19:51.671Z,15.53
2023-04-21T10:22:58.637Z,15.53
2023-04-21T10:26:11.034Z,15.60
2023-04-21T10:29:16.161Z,15.87
2023-04-21T10:32:32.941Z,15.50
2023-04-21T10:36:00.986Z,15.63
2023-04-21T10:39:04.843Z,14.87
2023-04-21T10:42:23.099Z,16.30
2023-04-21T10:45:28.918Z,16.20
2023-04-21T10:48:37.995Z,16.43
2023-04-21T10:52:08.068Z,17.00
2023-04-21T10:55:12.715Z,15.90
2023-04-21T10:58:16.806Z,15.10
2023-04-21T11:01:19.795Z,15.27
2023-04-21T11:04:24.168Z,16.20
2023-04-21T11:07:29.141Z,15.10
2023-04-21T11:10:43.295Z,16.63
2023-04-21T11:13:47.550Z,15.70
2023-04-21T11:16:50.305Z,15.27
2023-04-21T11:19:54.744Z,15.67
2023-04-21T11:22:59.116Z,16.37
2023-04-21T11:26:01.826Z,15.27
2023-04-21T11:29:06.068Z,15.70
2023-04-21T11:32:09.478Z,15.00
2023-04-21T11:35:12.244Z,15.50
2023-04-21T11:38:19.695Z,14.80
2023-04-21T11:41:22.841Z,14.10
2023-04-21T11:44:35.982Z,14.73
2023-04-21T11:47:40.062Z,15.00
2023-04-21T11:50:48.544Z,15.73
2023-04-21T11:53:53.008Z,16.07
2023-04-21T11:56:55.843Z,13.93
2023-04-21T11:59:59.954Z,8.63
2023-04-21T12:03:03.606Z,13.50
2023-04-21T12:06:07.541Z,13.67
2023-04-21T12:09:18.429Z,13.43
2023-04-21T12:12:23.213Z,12.80
2023-04-21T12:15:26.532Z,13.70
2023-04-21T12:18:29.315Z,12.60
2023-04-21T12:21:32.004Z,12.27
2023-04-21T12:24:36.805Z,12.10
2023-04-21T12:27:48.400Z,13.13
2023-04-21T12:30:51.226Z,12.27
2023-04-21T12:33:53.942Z,12.77
2023-04-21T12:36:56.802Z,12.67
2023-04-21T12:40:00.829Z,12.17
2023-04-21T12:43:03.534Z,11.87
2023-04-21T12:46:06.417Z,11.70
2023-04-21T12:49:11.071Z,10.93
2023-04-21T12:52:13.877Z,11.43
2023-04-21T12:55:18.376Z,11.03
2023-04-21T12:58:21.446Z,11.13
2023-04-21T13:01:24.319Z,11.50
2023-04-21T13:04:27.305Z,11.07
2023-04-21T13:07:31.435Z,11.27
2023-04-21T13:10:35.538Z,11.23
2023-04-21T13:13:39.027Z,11.33
2023-04-21T13:16:41.866Z,11.97
2023-04-21T13:19:44.619Z,12.00
2023-04-21T13:22:47.495Z,12.20
2023-04-21T13:25:52.889Z,12.73
2023-04-21T13:28:55.696Z,11.40
2023-04-21T13:31:58.464Z,11.00
2023-04-21T13:35:01.171Z,11.53
2023-04-21T13:38:04.200Z,10.63
2023-04-21T13:41:08.277Z,10.63
2023-04-21T13:44:11.059Z,10.20
2023-04-21T13:47:13.960Z,10.83
2023-04-21T13:50:16.696Z,11.13
2023-04-21T13:53:21.264Z,9.37
2023-04-21T13:56:25.780Z,10.40
2023-04-21T13:59:28.731Z,9.40
2023-04-21T14:02:31.973Z,9.30
2023-04-21T14:05:35.261Z,9.47
2023-04-21T14:08:38.067Z,8.90
2023-04-21T14:11:42.095Z,8.70
2023-04-21T14:14:44.806Z,9.03
2023-04-21T14:17:47.579Z,8.60
2023-04-21T14:20:50.592Z,8.67
2023-04-21T14:23:53.424Z,8.80
2023-04-21T14:26:57.782Z,7.70
2023-04-21T14:30:00.480Z,7.90
2023-04-21T14:33:03.540Z,7.83
2023-04-21T14:36:06.769Z,7.43
2023-04-21T14:39:10.397Z,7.63
2023-04-21T14:42:14.474Z,7.60
2023-04-21T14:45:17.336Z,7.83
2023-04-21T14:48:20.092Z,7.67
2023-04-21T14:51:22.830Z,5.77
2023-04-21T14:54:25.613Z,6.17
2023-04-21T14:57:29.619Z,6.20
2023-04-21T15:00:32.711Z,4.90
2023-04-21T15:03:35.615Z,4.93
2023-04-21T15:06:38.529Z,5.93
2023-04-21T15:09:43.196Z,5.50
2023-04-21T15:12:47.244Z,5.10
2023-04-21T15:15:51.647Z,5.10
2023-04-21T15:18:55.401Z,5.10
2023-04-21T15:21:58.485Z,5.53
2023-04-21T15:25:01.258Z,5.20
2023-04-21T15:28:07.560Z,4.63
2023-04-21T15:31:10.447Z,5.60
2023-04-21T15:34:13.314Z,5.57
2023-04-21T15:37:17.692Z,4.90
2023-04-21T15:40:20.520Z,4.93
2023-04-21T15:43:25.846Z,5.00
2023-04-21T15:46:29.273Z,4.47
2023-04-21T15:49:32.016Z,3.67
2023-04-21T15:52:36.874Z,3.70
2023-04-21T15:55:39.721Z,3.63
2023-04-21T15:58:44.090Z,4.10
2023-04-21T16:01:46.953Z,3.33
2023-04-21T16:04:49.980Z,3.47
2023-04-21T16:07:52.881Z,3.33
2023-04-21T16:10:55.676Z,3.40
2023-04-21T16:13:59.946Z,3.33
2023-04-21T16:17:03.992Z,3.27
2023-04-21T16:20:07.894Z,3.80
2023-04-21T16:23:10.756Z,4.00
2023-04-21T16:26:13.540Z,2.90
2023-04-21T16:29:17.817Z,2.70
2023-04-21T16:32:21.398Z,3.80
2023-04-21T16:35:24.454Z,3.20
2023-04-21T16:38:27.322Z,3.10
2023-04-21T16:41:30.820Z,3.90
2023-04-21T16:44:35.077Z,3.13
2023-04-21T16:47:42.163Z,3.73
2023-04-21T16:50:45.635Z,4.00
2023-04-21T16:53:48.322Z,3.40
2023-04-21T16:56:51.151Z,3.27
2023-04-21T16:59:55.321Z,3.10
2023-04-21T17:02:58.770Z,3.27
2023-04-21T17:06:02.050Z,3.10
2023-04-21T17:09:05.067Z,3.30
2023-04-21T17:12:07.880Z,3.30
2023-04-21T17:15:13.288Z,3.50
2023-04-21T17:18:16.154Z,3.00
2023-04-21T17:21:18.942Z,3.27
2023-04-21T17:24:21.699Z,2.97
2023-04-21T17:27:24.519Z,3.50
2023-04-21T17:30:28.832Z,3.03
2023-04-21T17:33:31.547Z,3.37
2023-04-21T17:36:34.313Z,3.60
2023-04-21T17:39:37.213Z,3.77
2023-04-21T17:42:40.689Z,3.00
2023-04-21T17:45:46.145Z,3.10
2023-04-21T17:48:49.141Z,3.20
2023-04-21T17:51:52.178Z,2.87
2023-04-21T17:54:54.902Z,3.07
2023-04-21T17:57:57.604Z,3.43
2023-04-21T18:01:02.156Z,2.90
2023-04-21T18:04:05.352Z,3.17
2023-04-21T18:07:08.388Z,2.97
2023-04-21T18:10:11.589Z,3.90
2023-04-21T18:13:14.633Z,2.70
2023-04-21T18:16:18.794Z,2.60
2023-04-21T18:19:21.473Z,3.03
2023-04-21T18:22:24.211Z,3.00
2023-04-21T18:25:40.667Z,3.17
2023-04-21T18:28:44.708Z,3.13
2023-04-21T18:31:48.958Z,3.40
2023-04-21T18:34:51.690Z,2.93
2023-04-21T18:37:54.359Z,3.60
2023-04-21T18:40:57.294Z,3.57
2023-04-21T18:44:00.059Z,3.50
2023-04-21T18:47:05.105Z,4.40
2023-04-21T18:50:09.277Z,4.63
2023-04-21T18:53:11.930Z,4.77
2023-04-21T18:56:14.721Z,5.80
2023-04-21T18:59:17.895Z,5.77
2023-04-21T19:02:22.167Z,4.80
2023-04-21T19:05:30.492Z,4.83
2023-04-21T19:08:41.907Z,4.03
2023-04-21T19:11:46.026Z,4.07
2023-04-21T19:14:49.117Z,4.30
2023-04-21T19:17:53.439Z,3.90
2023-04-21T19:20:56.126Z,4.10
2023-04-21T19:23:58.852Z,4.13
2023-04-21T19:27:02.533Z,3.93
2023-04-21T19:30:06.657Z,4.03
2023-04-21T19:33:10.800Z,1.97
2023-04-21T19:36:13.718Z,1.50
2023-04-21T19:39:16.449Z,1.13
2023-04-21T19:42:19.194Z,1.07
2023-04-21T19:45:22.074Z,1.10
2023-04-21T19:48:26.614Z,0.97
2023-04-21T19:51:29.321Z,0.80
2023-04-21T19:54:32.214Z,0.80
2023-04-21T19:57:35.388Z,0.93
2023-04-21T20:00:38.154Z,1.00
2023-04-21T20:03:42.766Z,0.90
2023-04-21T20:06:45.785Z,0.80
2023-04-21T20:09:48.486Z,0.80
2023-04-21T20:12:51.218Z,0.80
2023-04-21T20:15:53.988Z,0.70
2023-04-21T20:18:58.339Z,1.00
2023-04-21T20:22:01.605Z,0.80
2023-04-21T20:25:06.091Z,1.00
2023-04-21T20:28:09.067Z,1.20
2023-04-21T20:31:12.026Z,0.90
2023-04-21T20:34:16.051Z,0.70
2023-04-21T20:37:19.435Z,0.97
2023-04-21T20:40:22.329Z,0.90
2023-04-21T20:43:26.087Z,0.90
2023-04-21T20:46:30.017Z,0.90
2023-04-21T20:49:35.308Z,1.47
2023-04-21T20:52:38.136Z,2.00
2023-04-21T20:55:40.969Z,2.83
2023-04-21T20:58:43.804Z,3.73
2023-04-21T21:01:46.815Z,3.87
2023-04-21T21:04:51.089Z,2.87
2023-04-21T21:07:53.851Z,2.60
2023-04-21T21:10:56.529Z,2.20
2023-04-21T21:13:59.202Z,1.87
2023-04-21T21:17:02.895Z,1.90
2023-04-21T21:20:08.784Z,2.13
2023-04-21T21:23:11.728Z,2.00
2023-04-21T21:26:14.402Z,2.57
2023-04-21T21:29:17.127Z,3.20
2023-04-21T21:32:20.060Z,2.37
2023-04-21T21:35:26.781Z,1.70
2023-04-21T21:38:29.443Z,2.40
2023-04-21T21:41:32.157Z,2.50
2023-04-21T21:44:36.390Z,2.33
2023-04-21T21:47:42.966Z,3.07
2023-04-21T21:50:49.050Z,2.40
2023-04-21T21:53:51.812Z,2.90
2023-04-21T21:56:54.598Z,2.03
2023-04-21T21:59:57.449Z,2.00
2023-04-21T22:03:00.349Z,2.50
2023-04-21T22:06:06.211Z,2.30
2023-04-21T22:09:09.155Z,2.60
2023-04-21T22:12:11.926Z,2.57
2023-04-21T22:15:14.648Z,2.40
2023-04-21T22:18:18.784Z,2.27
2023-04-21T22:21:22.860Z,2.20
2023-04-21T22:24:25.669Z,2.50
2023-04-21T22:27:29.926Z,2.70
2023-04-21T22:30:33.084Z,2.47
2023-04-21T22:33:36.403Z,2.67
2023-04-21T22:36:40.425Z,2.40
2023-04-21T22:39:43.233Z,2.40
2023-04-21T22:42:45.930Z,2.33
2023-04-21T22:45:48.686Z,2.40
2023-04-21T22:48:54.340Z,2.50
2023-04-21T22:51:58.484Z,2.60
2023-04-21T22:55:01.315Z,2.40
2023-04-21T22:58:04.249Z,2.80
2023-04-21T23:01:07.092Z,2.70
2023-04-21T23:04:10.005Z,2.30
2023-04-21T23:07:14.155Z,2.80
2023-04-21T23:10:17.072Z,2.67
2023-04-21T23:13:19.796Z,2.97
2023-04-21T23:16:22.600Z,2.20
2023-04-21T23:19:25.383Z,2.60
2023-04-21T23:22:29.548Z,2.23
2023-04-21T23:25:32.220Z,2.20
2023-04-21T23:28:34.921Z,2.10
2023-04-21T23:31:37.853Z,1.90
2023-04-21T23:34:40.712Z,2.10
2023-04-21T23:37:46.452Z,2.47
2023-04-21T23:40:49.174Z,2.40
2023-04-21T23:43:51.979Z,2.30
2023-04-21T23:46:54.732Z,2.30
2023-04-21T23:49:57.524Z,2.10
2023-04-21T23:53:02.022Z,2.20
2023-04-21T23:56:04.884Z,2.20
2023-04-21T23:59:07.599Z,2.00
